ISP weather

Long Island Mac Arthur Airport
Islip, New York, United States

Public forecast

Using degrees Fahrenheit for public forecast. Weather courtesy of forecast.io.

Current aviation weather report (METAR) for Long Island Mac Arthur Airport

Retrieved 2020/07/03 12:56 UTC (50 minutes ago):

KISP 031256Z 01007KT 10SM BKN100 BKN250 27/20 A2982 RMK AO2 SLP096 T02720200

Aviation forecast (TAF) for Long Island Mac Arthur Airport

Retrieved 2020/07/03 12:30 UTC (1 hour ago):

TAF KISP 031128Z 0312/0412 36006KT P6SM BKN120 FM031600 03007KT P6SM BKN040 FM031900 06007KT 5SM SHRA VCTS SCT030 BKN050CB FM040500 07004KT P6SM VCSH BKN025 FM041000 03006KT P6SM BKN040